Time;durP1;ratioP1;P1;durP2;ratioP2;P2;SDS_P1;SDS_P2;PMS_P1;PMS_P2;Temp;Humidity;BMP_temperature;BMP_pressure;BME280_temperature;BME280_humidity;BME280_pressure;Samples;Min_cycle;Max_cycle;Signal;HPM_P1;HPM_P2
2022/04/12 00:00:57;;;;;;;10.25;9.25;;;;;;;;;;5108862;27;20099;-70
2022/04/12 00:03:22;;;;;;;12.52;10.77;;;;;;;;;;5145341;27;20339;-70
2022/04/12 00:05:47;;;;;;;12.32;9.70;;;;;;;;;;5123742;27;20023;-70
2022/04/12 00:08:12;;;;;;;12.45;9.98;;;;;;;;;;5108917;27;20019;-69
2022/04/12 00:10:39;;;;;;;11.85;9.63;;;;;;;;;;5110904;27;20091;-69
2022/04/12 00:13:04;;;;;;;12.88;10.10;;;;;;;;;;5131454;27;20027;-70
2022/04/12 00:15:29;;;;;;;12.13;9.20;;;;;;;;;;5124532;27;20030;-70
2022/04/12 00:20:39;;;;;;;12.32;9.38;;;;;;;;;;5142604;27;20413;-70
2022/04/12 00:23:05;;;;;;;11.43;9.20;;;;;;;;;;5104264;27;20072;-69
2022/04/12 00:25:30;;;;;;;12.27;10.50;;;;;;;;;;5104651;27;20091;-70
2022/04/12 00:27:57;;;;;;;12.07;9.18;;;;;;;;;;5122868;27;20055;-68
2022/04/12 00:30:23;;;;;;;10.27;8.90;;;;;;;;;;5123611;27;20022;-70
2022/04/12 00:32:52;;;;;;;11.70;10.20;;;;;;;;;;5087195;27;20109;-70
2022/04/12 00:35:18;;;;;;;11.60;9.38;;;;;;;;;;5104609;27;20598;-70
2022/04/12 00:37:44;;;;;;;10.02;8.85;;;;;;;;;;5084888;27;20215;-69
2022/04/12 00:40:10;;;;;;;10.40;9.18;;;;;;;;;;5102880;27;20134;-69
2022/04/12 00:42:37;;;;;;;11.85;10.00;;;;;;;;;;5101831;27;20022;-69
2022/04/12 00:45:03;;;;;;;12.85;9.43;;;;;;;;;;5088082;27;20563;-69
2022/04/12 00:47:28;;;;;;;10.63;9.40;;;;;;;;;;5103813;27;20114;-69
2022/04/12 00:49:53;;;;;;;16.20;10.25;;;;;;;;;;5106666;27;20019;-69
2022/04/12 00:52:19;;;;;;;11.18;9.95;;;;;;;;;;5090505;27;20027;-70
2022/04/12 00:54:44;;;;;;;11.57;9.10;;;;;;;;;;5096015;28;20066;-69
2022/04/12 00:57:11;;;;;;;13.15;10.48;;;;;;;;;;5106694;28;20062;-69
2022/04/12 00:59:36;;;;;;;11.75;10.02;;;;;;;;;;5102632;28;20027;-69
2022/04/12 01:02:05;;;;;;;11.38;10.15;;;;;;;;;;5079402;28;20042;-70
2022/04/12 01:04:31;;;;;;;12.18;9.90;;;;;;;;;;5104484;28;20020;-70
2022/04/12 01:06:57;;;;;;;11.20;9.93;;;;;;;;;;5106767;28;20027;-69
2022/04/12 01:09:28;;;;;;;12.73;10.40;;;;;;;;;;5107820;28;20173;-70
2022/04/12 01:11:54;;;;;;;12.63;10.13;;;;;;;;;;5094472;28;20250;-69
2022/04/12 01:14:19;;;;;;;13.38;10.25;;;;;;;;;;5101206;28;20016;-68
2022/04/12 01:16:44;;;;;;;11.55;10.35;;;;;;;;;;5099864;28;20068;-70
2022/04/12 01:19:10;;;;;;;13.25;10.40;;;;;;;;;;5101103;28;20113;-69
2022/04/12 01:21:35;;;;;;;13.38;9.48;;;;;;;;;;5098041;28;20130;-69
2022/04/12 01:24:05;;;;;;;12.32;9.85;;;;;;;;;;5096885;28;20304;-68
2022/04/12 01:26:30;;;;;;;11.77;10.30;;;;;;;;;;5097244;28;20020;-69
2022/04/12 01:28:55;;;;;;;12.10;10.27;;;;;;;;;;5097634;28;20342;-69
2022/04/12 01:31:21;;;;;;;11.60;10.40;;;;;;;;;;5099504;28;20035;-70
2022/04/12 01:33:46;;;;;;;13.43;10.55;;;;;;;;;;5080270;28;20350;-68
2022/04/12 01:36:12;;;;;;;12.35;10.52;;;;;;;;;;5094970;28;20023;-69
2022/04/12 01:38:38;;;;;;;13.05;10.27;;;;;;;;;;5095397;28;20047;-68
2022/04/12 01:41:03;;;;;;;12.07;9.80;;;;;;;;;;5094975;28;20813;-69
2022/04/12 01:43:29;;;;;;;12.23;10.27;;;;;;;;;;5098884;28;20028;-69
2022/04/12 01:45:54;;;;;;;12.75;9.30;;;;;;;;;;5101291;28;20310;-69
2022/04/12 01:48:19;;;;;;;13.45;10.35;;;;;;;;;;5106219;28;20016;-70
2022/04/12 01:50:45;;;;;;;13.52;10.15;;;;;;;;;;5095004;28;20058;-69
2022/04/12 01:53:10;;;;;;;13.55;10.50;;;;;;;;;;5101928;28;20389;-69
2022/04/12 01:55:35;;;;;;;12.88;10.32;;;;;;;;;;5099034;27;20500;-71
2022/04/12 01:58:01;;;;;;;10.98;9.88;;;;;;;;;;5101763;28;20036;-69
2022/04/12 02:00:26;;;;;;;14.13;10.40;;;;;;;;;;5104651;28;20027;-69
2022/04/12 02:02:51;;;;;;;13.70;10.82;;;;;;;;;;5099915;28;20027;-68
2022/04/12 02:05:17;;;;;;;15.77;10.80;;;;;;;;;;5105805;28;20054;-70
2022/04/12 02:07:45;;;;;;;14.30;10.73;;;;;;;;;;5083703;28;20033;-69
2022/04/12 02:10:11;;;;;;;12.90;10.50;;;;;;;;;;5083709;28;20408;-70
2022/04/12 02:12:36;;;;;;;12.27;10.48;;;;;;;;;;5102483;28;20027;-69
2022/04/12 02:15:04;;;;;;;13.75;10.20;;;;;;;;;;5101580;28;20444;-70
2022/04/12 02:17:29;;;;;;;13.15;9.70;;;;;;;;;;5102201;28;20022;-70
2022/04/12 02:19:54;;;;;;;12.95;10.60;;;;;;;;;;5101586;27;20444;-69
2022/04/12 02:22:19;;;;;;;13.07;11.48;;;;;;;;;;5099707;28;20070;-69
2022/04/12 02:24:45;;;;;;;15.40;10.85;;;;;;;;;;5100300;28;20024;-69
2022/04/12 02:27:11;;;;;;;14.57;11.40;;;;;;;;;;5098987;28;20392;-70
2022/04/12 02:29:36;;;;;;;12.05;10.40;;;;;;;;;;5103738;27;20023;-69
2022/04/12 02:32:02;;;;;;;12.73;10.57;;;;;;;;;;5101440;27;20117;-69
2022/04/12 02:34:27;;;;;;;14.25;10.95;;;;;;;;;;5105427;28;20103;-70
2022/04/12 02:36:52;;;;;;;11.15;9.95;;;;;;;;;;5097845;28;20442;-70
2022/04/12 02:39:20;;;;;;;12.02;10.00;;;;;;;;;;5102237;28;20537;-70
2022/04/12 02:41:46;;;;;;;12.63;10.50;;;;;;;;;;5101972;28;20032;-69
2022/04/12 02:44:11;;;;;;;12.45;9.85;;;;;;;;;;5089004;28;20442;-69
2022/04/12 02:46:36;;;;;;;13.35;10.75;;;;;;;;;;5103816;27;20117;-69
2022/04/12 02:49:02;;;;;;;13.10;10.52;;;;;;;;;;5101150;28;20385;-69
2022/04/12 02:51:27;;;;;;;12.70;9.73;;;;;;;;;;5100429;28;20030;-69
2022/04/12 02:53:53;;;;;;;11.60;10.35;;;;;;;;;;5098037;28;20444;-69
2022/04/12 02:56:18;;;;;;;11.35;10.13;;;;;;;;;;5097727;28;20511;-70
2022/04/12 02:58:43;;;;;;;14.07;10.20;;;;;;;;;;5102936;28;20498;-70
2022/04/12 03:01:09;;;;;;;13.18;10.38;;;;;;;;;;5101536;28;20044;-70
2022/04/12 03:03:34;;;;;;;13.15;10.07;;;;;;;;;;5104346;27;20405;-69
2022/04/12 03:05:59;;;;;;;13.00;9.82;;;;;;;;;;5097203;28;20196;-69
2022/04/12 03:08:25;;;;;;;11.55;9.32;;;;;;;;;;5101983;28;20103;-68
2022/04/12 03:10:50;;;;;;;13.30;10.35;;;;;;;;;;5079527;28;20168;-68
2022/04/12 03:13:16;;;;;;;11.35;10.18;;;;;;;;;;5085716;28;20114;-68
2022/04/12 03:15:41;;;;;;;14.20;10.38;;;;;;;;;;5102766;28;20027;-69
2022/04/12 03:18:06;;;;;;;12.73;10.85;;;;;;;;;;5100155;28;20359;-69
2022/04/12 03:20:32;;;;;;;11.35;10.15;;;;;;;;;;5102541;28;20034;-70
2022/04/12 03:22:58;;;;;;;11.05;9.93;;;;;;;;;;5081394;28;20108;-70
2022/04/12 03:25:23;;;;;;;11.88;9.85;;;;;;;;;;5080796;28;20069;-69
2022/04/12 03:27:48;;;;;;;13.15;10.05;;;;;;;;;;5104283;28;20453;-69
2022/04/12 03:30:14;;;;;;;11.15;9.35;;;;;;;;;;5083166;28;20766;-69
2022/04/12 03:32:39;;;;;;;10.85;9.43;;;;;;;;;;5102804;28;20326;-69
2022/04/12 03:35:07;;;;;;;11.98;9.75;;;;;;;;;;5105786;27;20106;-70
2022/04/12 03:37:33;;;;;;;12.35;9.82;;;;;;;;;;5108011;28;20032;-69
2022/04/12 03:39:58;;;;;;;13.35;9.75;;;;;;;;;;5098215;28;20362;-69
2022/04/12 03:42:23;;;;;;;10.95;9.35;;;;;;;;;;5100749;27;20026;-69
2022/04/12 03:44:48;;;;;;;12.23;9.93;;;;;;;;;;5104680;27;20059;-70
2022/04/12 03:47:14;;;;;;;12.07;9.20;;;;;;;;;;5102165;27;20187;-70
2022/04/12 03:49:39;;;;;;;13.15;10.00;;;;;;;;;;5124130;27;20019;-69
2022/04/12 03:52:04;;;;;;;14.48;9.45;;;;;;;;;;5099885;27;20493;-69
2022/04/12 03:54:30;;;;;;;11.93;9.32;;;;;;;;;;5137636;27;20038;-70
2022/04/12 03:56:56;;;;;;;11.80;9.52;;;;;;;;;;5121391;27;20014;-70
2022/04/12 03:59:21;;;;;;;13.82;9.98;;;;;;;;;;5124516;27;20473;-70
2022/04/12 04:01:46;;;;;;;11.45;9.63;;;;;;;;;;5143564;27;20025;-69
2022/04/12 04:04:12;;;;;;;11.23;9.68;;;;;;;;;;5124276;27;20192;-68
2022/04/12 04:06:37;;;;;;;13.27;9.27;;;;;;;;;;5121174;27;20113;-70
2022/04/12 04:09:02;;;;;;;11.88;9.40;;;;;;;;;;5136908;27;20053;-69
2022/04/12 04:11:28;;;;;;;11.57;9.77;;;;;;;;;;5120022;27;20030;-69
2022/04/12 04:13:53;;;;;;;11.70;9.70;;;;;;;;;;5104678;27;20042;-68
2022/04/12 04:16:19;;;;;;;10.60;9.40;;;;;;;;;;5101407;27;20110;-69
2022/04/12 04:18:44;;;;;;;11.05;9.48;;;;;;;;;;5088042;27;20130;-70
2022/04/12 04:21:09;;;;;;;11.63;9.77;;;;;;;;;;5083081;27;20270;-69
2022/04/12 04:23:35;;;;;;;11.20;9.68;;;;;;;;;;5101813;27;20050;-70
2022/04/12 04:26:00;;;;;;;10.88;9.55;;;;;;;;;;5083262;27;20030;-69
2022/04/12 04:28:29;;;;;;;10.82;9.23;;;;;;;;;;5146102;27;20011;-69
2022/04/12 04:30:55;;;;;;;11.60;9.32;;;;;;;;;;5125900;27;20025;-69
2022/04/12 04:33:21;;;;;;;12.27;9.95;;;;;;;;;;5126952;27;20022;-69
2022/04/12 04:35:47;;;;;;;13.43;9.18;;;;;;;;;;5122765;27;20057;-68
2022/04/12 04:38:12;;;;;;;11.15;9.90;;;;;;;;;;5141373;27;20144;-68
2022/04/12 04:40:37;;;;;;;11.75;9.25;;;;;;;;;;5119190;27;20045;-68
2022/04/12 04:43:03;;;;;;;11.02;9.13;;;;;;;;;;5141898;27;20353;-69
2022/04/12 04:45:28;;;;;;;9.68;8.65;;;;;;;;;;5123828;27;20015;-69
2022/04/12 04:47:56;;;;;;;10.98;8.95;;;;;;;;;;5125024;27;20038;-69
2022/04/12 04:50:22;;;;;;;10.40;9.30;;;;;;;;;;5103108;27;20015;-68
2022/04/12 04:52:47;;;;;;;10.38;9.15;;;;;;;;;;5086070;27;20054;-70
2022/04/12 04:55:13;;;;;;;9.65;8.65;;;;;;;;;;5115208;27;20338;-70
2022/04/12 04:57:40;;;;;;;15.10;10.20;;;;;;;;;;5105296;27;20077;-69
2022/04/12 05:00:06;;;;;;;10.43;9.02;;;;;;;;;;5121044;27;20026;-70
2022/04/12 05:02:33;;;;;;;12.50;8.93;;;;;;;;;;5102704;27;20051;-69
2022/04/12 05:04:58;;;;;;;11.85;9.48;;;;;;;;;;5103922;27;20470;-70
2022/04/12 05:07:25;;;;;;;13.88;9.70;;;;;;;;;;5116876;27;20014;-68
2022/04/12 05:09:51;;;;;;;11.07;9.10;;;;;;;;;;5121781;27;20024;-70
2022/04/12 05:12:16;;;;;;;10.82;9.15;;;;;;;;;;5138261;27;20400;-68
2022/04/12 05:14:42;;;;;;;11.25;9.30;;;;;;;;;;5143651;27;20019;-69
2022/04/12 05:17:07;;;;;;;11.75;9.40;;;;;;;;;;5120213;27;20030;-70
2022/04/12 05:19:32;;;;;;;13.77;9.95;;;;;;;;;;5142072;27;20019;-70
2022/04/12 05:21:58;;;;;;;13.63;9.70;;;;;;;;;;5121186;27;20038;-70
2022/04/12 05:24:23;;;;;;;12.60;8.88;;;;;;;;;;5121724;27;20068;-70
2022/04/12 05:26:48;;;;;;;15.13;10.77;;;;;;;;;;5143187;27;20074;-71
2022/04/12 05:29:14;;;;;;;11.07;9.20;;;;;;;;;;5144407;27;20023;-71
2022/04/12 05:31:39;;;;;;;11.95;9.50;;;;;;;;;;5146162;27;20200;-71
2022/04/12 05:34:04;;;;;;;14.52;8.88;;;;;;;;;;5143747;27;20044;-71
2022/04/12 05:36:29;;;;;;;12.30;8.82;;;;;;;;;;5122373;27;20280;-71
2022/04/12 05:38:56;;;;;;;12.93;9.48;;;;;;;;;;5122490;27;20031;-73
2022/04/12 05:41:22;;;;;;;11.75;9.70;;;;;;;;;;5119505;27;20132;-71
2022/04/12 05:43:47;;;;;;;10.93;9.65;;;;;;;;;;5124829;27;20133;-72
2022/04/12 05:46:12;;;;;;;11.07;9.32;;;;;;;;;;5122499;27;20028;-71
2022/04/12 05:48:37;;;;;;;10.18;9.02;;;;;;;;;;5125558;27;20126;-71
2022/04/12 05:51:03;;;;;;;10.15;9.02;;;;;;;;;;5102799;27;20023;-71
2022/04/12 05:53:29;;;;;;;12.07;9.95;;;;;;;;;;5105511;27;20271;-71
2022/04/12 05:55:55;;;;;;;12.40;9.60;;;;;;;;;;5102275;27;20015;-71
2022/04/12 05:58:20;;;;;;;10.65;9.32;;;;;;;;;;5105690;27;20858;-71
2022/04/12 06:00:45;;;;;;;10.63;9.52;;;;;;;;;;5090156;27;20016;-71
2022/04/12 06:03:11;;;;;;;11.20;9.10;;;;;;;;;;5124472;27;20072;-71
2022/04/12 06:05:36;;;;;;;12.23;10.00;;;;;;;;;;5123093;27;20023;-71
2022/04/12 06:08:03;;;;;;;11.20;9.18;;;;;;;;;;5105168;27;20031;-71
2022/04/12 06:10:29;;;;;;;13.70;10.45;;;;;;;;;;5083379;27;20092;-71
2022/04/12 06:12:54;;;;;;;10.00;8.88;;;;;;;;;;5128922;27;20042;-71
2022/04/12 06:15:20;;;;;;;10.50;9.25;;;;;;;;;;5131135;27;20393;-71
2022/04/12 06:17:45;;;;;;;10.50;9.40;;;;;;;;;;5105455;27;20042;-72
2022/04/12 06:20:12;;;;;;;12.55;9.98;;;;;;;;;;5104001;27;20080;-72
2022/04/12 06:22:38;;;;;;;13.30;10.00;;;;;;;;;;5121618;27;20110;-70
2022/04/12 06:25:04;;;;;;;10.25;9.15;;;;;;;;;;5109486;27;20118;-72
2022/04/12 06:27:34;;;;;;;12.48;9.93;;;;;;;;;;5103267;27;20030;-72
2022/04/12 06:30:16;;;;;;;10.38;9.23;;;;;;;;;;5106873;27;20019;-72
2022/04/12 06:32:42;;;;;;;14.27;9.07;;;;;;;;;;5091630;27;20039;-72
2022/04/12 06:35:09;;;;;;;11.70;9.07;;;;;;;;;;5126205;27;20068;-70
2022/04/12 06:37:35;;;;;;;13.35;8.90;;;;;;;;;;5110414;27;20050;-72
2022/04/12 06:40:01;;;;;;;11.57;9.40;;;;;;;;;;5106436;27;20404;-71
2022/04/12 06:42:26;;;;;;;11.73;9.23;;;;;;;;;;5088920;27;20027;-71
2022/04/12 06:44:52;;;;;;;11.10;9.90;;;;;;;;;;5127173;27;20041;-72
2022/04/12 06:47:18;;;;;;;12.32;8.48;;;;;;;;;;5127502;27;20031;-72
2022/04/12 06:49:46;;;;;;;10.43;9.30;;;;;;;;;;5127237;27;20083;-71
2022/04/12 06:52:12;;;;;;;10.32;8.50;;;;;;;;;;5106534;27;20023;-70
2022/04/12 06:54:37;;;;;;;13.35;9.57;;;;;;;;;;5136645;27;20050;-71
2022/04/12 06:57:03;;;;;;;11.38;9.40;;;;;;;;;;5106289;27;20031;-71
2022/04/12 06:59:29;;;;;;;10.82;8.77;;;;;;;;;;5123365;27;20049;-71
2022/04/12 07:01:54;;;;;;;12.20;9.38;;;;;;;;;;5123715;27;20446;-69
2022/04/12 07:04:21;;;;;;;10.93;9.38;;;;;;;;;;5105598;27;20103;-71
2022/04/12 07:06:46;;;;;;;12.63;9.88;;;;;;;;;;5103495;27;20430;-71
2022/04/12 07:09:18;;;;;;;13.98;9.45;;;;;;;;;;5101632;27;20016;-71
2022/04/12 07:11:44;;;;;;;13.73;9.77;;;;;;;;;;5106461;27;20019;-69
2022/04/12 07:14:10;;;;;;;10.80;9.32;;;;;;;;;;5105428;27;20031;-72
2022/04/12 07:16:35;;;;;;;12.82;10.15;;;;;;;;;;5088407;27;20365;-72
2022/04/12 07:19:00;;;;;;;13.05;9.60;;;;;;;;;;5088724;27;20027;-71
2022/04/12 07:21:28;;;;;;;10.60;9.50;;;;;;;;;;5121101;27;20030;-71
2022/04/12 07:23:53;;;;;;;11.40;9.63;;;;;;;;;;5105084;27;20435;-71
2022/04/12 07:26:18;;;;;;;11.02;9.80;;;;;;;;;;5122384;27;20488;-71
2022/04/12 07:28:43;;;;;;;11.30;9.95;;;;;;;;;;5125257;27;20015;-72
2022/04/12 07:31:09;;;;;;;14.30;10.32;;;;;;;;;;5106157;27;20019;-72
2022/04/12 07:33:35;;;;;;;12.43;9.77;;;;;;;;;;5088027;27;20039;-71
2022/04/12 07:36:00;;;;;;;10.73;9.15;;;;;;;;;;5104478;27;20046;-71
2022/04/12 07:38:26;;;;;;;11.52;9.90;;;;;;;;;;5122613;27;20019;-71
2022/04/12 07:40:53;;;;;;;11.10;9.45;;;;;;;;;;5086483;27;20501;-70
2022/04/12 07:43:18;;;;;;;10.65;9.20;;;;;;;;;;5104014;27;20050;-71
2022/04/12 07:45:44;;;;;;;12.13;9.52;;;;;;;;;;5107993;27;20035;-71
2022/04/12 07:48:09;;;;;;;11.95;9.23;;;;;;;;;;5107629;27;20034;-71
2022/04/12 07:50:35;;;;;;;10.70;8.43;;;;;;;;;;5103732;27;20027;-70
2022/04/12 07:53:00;;;;;;;12.55;9.60;;;;;;;;;;5101493;28;20047;-71
2022/04/12 07:55:26;;;;;;;12.70;8.77;;;;;;;;;;5098872;28;20513;-71
2022/04/12 07:57:51;;;;;;;9.90;8.95;;;;;;;;;;5104613;28;20535;-71
2022/04/12 08:00:16;;;;;;;10.23;9.23;;;;;;;;;;5102380;27;20012;-71
2022/04/12 08:02:42;;;;;;;10.40;9.30;;;;;;;;;;5102587;28;20019;-70
2022/04/12 08:05:07;;;;;;;14.35;9.88;;;;;;;;;;5085812;28;20031;-71
2022/04/12 08:07:32;;;;;;;10.15;8.75;;;;;;;;;;5097463;28;20284;-71
2022/04/12 08:09:57;;;;;;;10.35;9.32;;;;;;;;;;5100738;28;20106;-71
2022/04/12 08:12:23;;;;;;;11.95;9.23;;;;;;;;;;5080005;28;20027;-72
2022/04/12 08:14:48;;;;;;;11.48;9.90;;;;;;;;;;5102066;28;20038;-71
2022/04/12 08:17:14;;;;;;;11.13;9.73;;;;;;;;;;5084526;28;20497;-71
2022/04/12 08:19:39;;;;;;;9.95;8.70;;;;;;;;;;5100703;28;20088;-71
2022/04/12 08:22:05;;;;;;;11.80;9.43;;;;;;;;;;5098708;28;20027;-71
2022/04/12 08:24:30;;;;;;;10.15;9.05;;;;;;;;;;5097541;28;20176;-70
2022/04/12 08:26:55;;;;;;;10.02;9.07;;;;;;;;;;5100204;28;20027;-71
2022/04/12 08:29:20;;;;;;;11.27;9.18;;;;;;;;;;5099517;28;20031;-71
2022/04/12 08:31:46;;;;;;;13.55;9.55;;;;;;;;;;5100481;28;20164;-70
2022/04/12 08:34:11;;;;;;;9.88;8.88;;;;;;;;;;5100116;28;20035;-70
2022/04/12 08:36:36;;;;;;;10.15;9.00;;;;;;;;;;5108500;27;20513;-71
2022/04/12 08:39:02;;;;;;;14.43;10.43;;;;;;;;;;5120686;27;20054;-71
2022/04/12 08:41:29;;;;;;;11.63;9.60;;;;;;;;;;5116899;27;20027;-71
2022/04/12 08:43:55;;;;;;;10.70;9.60;;;;;;;;;;5121663;27;20150;-71
2022/04/12 08:46:24;;;;;;;10.43;9.25;;;;;;;;;;5118325;27;20159;-71
2022/04/12 08:48:49;;;;;;;11.13;9.75;;;;;;;;;;5121939;27;20414;-71
2022/04/12 08:51:15;;;;;;;12.27;10.00;;;;;;;;;;5117863;27;20046;-71
2022/04/12 08:53:40;;;;;;;11.88;9.05;;;;;;;;;;5128126;27;20765;-71
2022/04/12 08:56:05;;;;;;;11.27;10.10;;;;;;;;;;5122454;27;20166;-71
2022/04/12 08:58:31;;;;;;;11.32;10.15;;;;;;;;;;5121419;27;20119;-71
2022/04/12 09:00:56;;;;;;;11.32;9.25;;;;;;;;;;5107231;27;20388;-71
2022/04/12 09:03:24;;;;;;;10.30;9.00;;;;;;;;;;5107430;27;20022;-71
2022/04/12 09:05:52;;;;;;;12.07;9.10;;;;;;;;;;5123569;27;20023;-71
2022/04/12 09:08:24;;;;;;;11.27;10.07;;;;;;;;;;5143972;27;20521;-71
2022/04/12 09:10:55;;;;;;;11.95;9.25;;;;;;;;;;5096699;27;20015;-70
2022/04/12 09:13:21;;;;;;;10.20;9.10;;;;;;;;;;5120401;27;20106;-72
2022/04/12 09:15:47;;;;;;;12.32;10.00;;;;;;;;;;5118769;27;20026;-70
2022/04/12 09:18:12;;;;;;;11.15;9.55;;;;;;;;;;5125090;27;20019;-71
2022/04/12 09:20:38;;;;;;;10.77;9.68;;;;;;;;;;5138208;27;20037;-71
2022/04/12 09:23:24;;;;;;;10.73;9.73;;;;;;;;;;5106691;27;20030;-70
2022/04/12 09:25:53;;;;;;;10.45;9.38;;;;;;;;;;5118849;27;20023;-71
2022/04/12 09:28:19;;;;;;;10.00;9.10;;;;;;;;;;5144893;27;20839;-71
2022/04/12 09:30:45;;;;;;;9.98;8.70;;;;;;;;;;5083152;27;20038;-70
2022/04/12 09:33:10;;;;;;;11.25;9.40;;;;;;;;;;5105147;27;20023;-71
2022/04/12 09:35:38;;;;;;;9.93;8.93;;;;;;;;;;5101805;27;20099;-72
2022/04/12 09:38:03;;;;;;;10.43;9.13;;;;;;;;;;5104625;27;20038;-71
2022/04/12 09:40:28;;;;;;;9.52;8.32;;;;;;;;;;5117527;27;20532;-69
2022/04/12 09:42:54;;;;;;;10.70;9.48;;;;;;;;;;5104849;27;20118;-71
2022/04/12 09:45:30;;;;;;;13.10;8.93;;;;;;;;;;5124128;27;20094;-70
2022/04/12 09:47:57;;;;;;;11.02;9.23;;;;;;;;;;5130943;27;20504;-69
2022/04/12 09:50:26;;;;;;;12.20;9.13;;;;;;;;;;5124137;27;20033;-68
2022/04/12 09:52:55;;;;;;;10.68;8.73;;;;;;;;;;5140599;27;20023;-72
2022/04/12 09:55:37;;;;;;;10.45;9.30;;;;;;;;;;5138677;27;20013;-70
2022/04/12 09:58:03;;;;;;;9.52;8.52;;;;;;;;;;5145573;27;20113;-70
2022/04/12 10:00:30;;;;;;;9.40;8.40;;;;;;;;;;5139528;27;20019;-71
2022/04/12 10:02:56;;;;;;;12.20;9.45;;;;;;;;;;5143300;27;20030;-70
2022/04/12 10:05:22;;;;;;;12.52;8.88;;;;;;;;;;5126117;27;20011;-71
2022/04/12 10:07:48;;;;;;;10.23;9.23;;;;;;;;;;5107828;27;20067;-72
2022/04/12 10:10:17;;;;;;;13.45;8.82;;;;;;;;;;5142647;27;20011;-70
2022/04/12 10:12:43;;;;;;;10.40;8.65;;;;;;;;;;5109565;27;20086;-70
2022/04/12 10:15:08;;;;;;;10.43;9.00;;;;;;;;;;5147266;27;20385;-70
2022/04/12 10:17:34;;;;;;;10.55;8.88;;;;;;;;;;5125861;27;20047;-72
2022/04/12 10:19:59;;;;;;;10.50;8.75;;;;;;;;;;5146326;27;20087;-71
2022/04/12 10:22:28;;;;;;;11.00;8.75;;;;;;;;;;5106308;27;20058;-69
2022/04/12 10:24:53;;;;;;;11.60;8.77;;;;;;;;;;5127090;27;20022;-71
2022/04/12 10:27:22;;;;;;;10.07;8.23;;;;;;;;;;5125845;27;20389;-71
2022/04/12 10:30:06;;;;;;;9.45;8.55;;;;;;;;;;5125451;27;20365;-70
2022/04/12 10:32:31;;;;;;;9.88;7.95;;;;;;;;;;5105231;27;20019;-72
2022/04/12 10:35:00;;;;;;;10.55;8.25;;;;;;;;;;5108369;27;20043;-70
2022/04/12 10:37:26;;;;;;;9.75;8.75;;;;;;;;;;5120769;27;20034;-71
2022/04/12 10:40:02;;;;;;;9.02;8.02;;;;;;;;;;5104900;27;20023;-72
2022/04/12 10:42:29;;;;;;;9.18;8.27;;;;;;;;;;5120807;27;20031;-70
2022/04/12 10:44:56;;;;;;;10.82;7.88;;;;;;;;;;5108224;27;20072;-69
2022/04/12 10:47:28;;;;;;;9.13;7.40;;;;;;;;;;5124359;27;20115;-71
2022/04/12 10:50:00;;;;;;;12.75;7.85;;;;;;;;;;5106432;27;20035;-71
2022/04/12 10:52:33;;;;;;;8.85;8.05;;;;;;;;;;5104399;27;20114;-69
2022/04/12 10:54:59;;;;;;;11.05;8.45;;;;;;;;;;5106016;27;20051;-69
2022/04/12 10:57:26;;;;;;;11.93;8.75;;;;;;;;;;5120987;27;20034;-71
2022/04/12 10:59:53;;;;;;;10.32;8.23;;;;;;;;;;5115316;27;20022;-71
2022/04/12 11:02:18;;;;;;;10.98;8.52;;;;;;;;;;5127211;27;20026;-71
2022/04/12 11:04:44;;;;;;;10.60;8.27;;;;;;;;;;5125449;27;20498;-69
2022/04/12 11:07:09;;;;;;;11.35;8.52;;;;;;;;;;5103871;27;20165;-72
2022/04/12 11:09:35;;;;;;;12.88;7.53;;;;;;;;;;5119837;27;20487;-70
2022/04/12 11:12:02;;;;;;;10.75;8.18;;;;;;;;;;5125311;27;20353;-70
2022/04/12 11:14:29;;;;;;;10.02;8.82;;;;;;;;;;5128526;27;20107;-70
2022/04/12 11:16:57;;;;;;;11.57;8.43;;;;;;;;;;5124948;27;20022;-69
2022/04/12 11:19:24;;;;;;;9.27;8.23;;;;;;;;;;5146860;27;20018;-70
2022/04/12 11:21:50;;;;;;;9.07;7.15;;;;;;;;;;5123037;27;20027;-71
2022/04/12 11:24:17;;;;;;;11.10;7.97;;;;;;;;;;5127583;27;20046;-71
2022/04/12 11:26:48;;;;;;;8.90;8.00;;;;;;;;;;5123247;27;20110;-70
2022/04/12 11:29:15;;;;;;;10.57;7.57;;;;;;;;;;5122645;27;20015;-71
2022/04/12 11:31:45;;;;;;;11.65;8.13;;;;;;;;;;5104360;27;20023;-72
2022/04/12 11:34:11;;;;;;;8.90;7.47;;;;;;;;;;5121255;27;20430;-70
2022/04/12 11:36:39;;;;;;;10.98;8.15;;;;;;;;;;5105612;27;20160;-71
2022/04/12 11:39:05;;;;;;;9.32;8.27;;;;;;;;;;5109326;27;20061;-69
2022/04/12 11:41:32;;;;;;;9.55;8.15;;;;;;;;;;5121751;27;20018;-70
2022/04/12 11:43:58;;;;;;;9.25;8.27;;;;;;;;;;5110996;27;20038;-71
2022/04/12 11:46:23;;;;;;;8.48;7.68;;;;;;;;;;5125530;27;20594;-72
2022/04/12 11:48:48;;;;;;;9.95;7.28;;;;;;;;;;5143846;27;20355;-73
2022/04/12 11:51:17;;;;;;;11.40;7.93;;;;;;;;;;5108898;27;20023;-71
2022/04/12 11:53:47;;;;;;;9.68;7.45;;;;;;;;;;5124476;27;20035;-70
2022/04/12 11:56:12;;;;;;;11.95;6.95;;;;;;;;;;5143965;27;20042;-70
2022/04/12 11:58:38;;;;;;;9.30;7.68;;;;;;;;;;5122667;27;20508;-72
2022/04/12 12:01:03;;;;;;;10.20;7.25;;;;;;;;;;5144580;27;20018;-71
2022/04/12 12:03:30;;;;;;;9.48;7.50;;;;;;;;;;5124370;27;20468;-70
2022/04/12 12:05:56;;;;;;;9.15;7.40;;;;;;;;;;5106008;27;20430;-70
2022/04/12 12:08:22;;;;;;;12.25;7.75;;;;;;;;;;5124460;27;20456;-71
2022/04/12 12:10:47;;;;;;;12.75;8.10;;;;;;;;;;5122305;27;20068;-71
2022/04/12 12:13:13;;;;;;;13.80;7.43;;;;;;;;;;5125526;27;20485;-70
2022/04/12 12:15:39;;;;;;;9.88;7.72;;;;;;;;;;5120482;27;20022;-70
2022/04/12 12:18:06;;;;;;;9.98;7.15;;;;;;;;;;5145044;27;20067;-71
2022/04/12 12:20:35;;;;;;;9.00;7.78;;;;;;;;;;5143106;27;20034;-70
2022/04/12 12:23:02;;;;;;;12.07;6.93;;;;;;;;;;5123160;27;20023;-72
2022/04/12 12:25:38;;;;;;;11.02;7.60;;;;;;;;;;5140830;27;20284;-72
2022/04/12 12:28:08;;;;;;;11.18;7.47;;;;;;;;;;5143575;27;20021;-70
2022/04/12 12:30:34;;;;;;;11.10;7.05;;;;;;;;;;5125138;27;20097;-70
2022/04/12 12:33:00;;;;;;;8.35;6.72;;;;;;;;;;5123155;27;20114;-70
2022/04/12 12:35:26;;;;;;;9.55;6.88;;;;;;;;;;5123993;27;20141;-71
2022/04/12 12:38:00;;;;;;;8.95;6.43;;;;;;;;;;5140517;27;20503;-70
2022/04/12 12:40:26;;;;;;;9.68;6.80;;;;;;;;;;5120330;27;20079;-71
2022/04/12 12:42:52;;;;;;;9.32;6.75;;;;;;;;;;5140793;27;20469;-72
2022/04/12 12:45:21;;;;;;;7.57;6.75;;;;;;;;;;5143108;27;20015;-72
2022/04/12 12:47:49;;;;;;;12.93;6.32;;;;;;;;;;5141964;27;20093;-70
2022/04/12 12:50:14;;;;;;;9.00;5.80;;;;;;;;;;5124553;27;20033;-72
2022/04/12 12:52:40;;;;;;;8.57;6.82;;;;;;;;;;5122368;27;20282;-71
2022/04/12 12:55:13;;;;;;;9.48;6.97;;;;;;;;;;5122869;27;20550;-69
2022/04/12 12:57:42;;;;;;;8.70;6.43;;;;;;;;;;5122803;27;20126;-71
2022/04/12 13:00:08;;;;;;;7.75;6.43;;;;;;;;;;5125388;27;20023;-71
2022/04/12 13:02:35;;;;;;;10.27;7.00;;;;;;;;;;5143527;27;20086;-71
2022/04/12 13:05:05;;;;;;;8.35;6.63;;;;;;;;;;5124684;27;20027;-71
2022/04/12 13:07:32;;;;;;;9.20;6.15;;;;;;;;;;5144562;27;20018;-71
2022/04/12 13:10:14;;;;;;;8.75;6.25;;;;;;;;;;5142544;27;20409;-72
2022/04/12 13:12:40;;;;;;;8.43;6.40;;;;;;;;;;5124228;27;20287;-71
2022/04/12 13:15:09;;;;;;;8.45;7.03;;;;;;;;;;5125556;27;20110;-70
2022/04/12 13:17:35;;;;;;;9.98;6.90;;;;;;;;;;5123583;27;20022;-71
2022/04/12 13:20:01;;;;;;;8.68;7.32;;;;;;;;;;5124153;27;20318;-72
2022/04/12 13:22:26;;;;;;;10.70;7.22;;;;;;;;;;5124569;27;20055;-71
2022/04/12 13:24:52;;;;;;;8.10;6.60;;;;;;;;;;5105747;27;20019;-72
2022/04/12 13:27:17;;;;;;;7.53;6.40;;;;;;;;;;5141576;27;20075;-71
2022/04/12 13:29:43;;;;;;;8.02;6.18;;;;;;;;;;5141658;27;20014;-71
2022/04/12 13:32:08;;;;;;;7.68;6.30;;;;;;;;;;5124329;27;20019;-70
2022/04/12 13:34:34;;;;;;;8.73;6.43;;;;;;;;;;5127115;27;20102;-71
2022/04/12 13:37:00;;;;;;;8.48;6.25;;;;;;;;;;5121876;27;20353;-71
2022/04/12 13:39:25;;;;;;;8.60;6.45;;;;;;;;;;5123789;27;20046;-71
2022/04/12 13:41:51;;;;;;;15.98;7.63;;;;;;;;;;5105371;27;20023;-71
2022/04/12 13:44:16;;;;;;;10.40;8.05;;;;;;;;;;5129620;27;20033;-71
2022/04/12 13:46:42;;;;;;;12.52;7.82;;;;;;;;;;5126625;27;20014;-71
2022/04/12 13:49:07;;;;;;;12.32;7.00;;;;;;;;;;5128863;27;20015;-71
2022/04/12 13:51:33;;;;;;;8.40;6.43;;;;;;;;;;5125671;27;20023;-71
2022/04/12 13:53:58;;;;;;;11.43;7.63;;;;;;;;;;5124312;27;20046;-70
2022/04/12 13:56:23;;;;;;;12.40;7.28;;;;;;;;;;5098139;27;20050;-70
2022/04/12 13:58:48;;;;;;;11.10;6.93;;;;;;;;;;5124504;27;20055;-70
2022/04/12 14:01:14;;;;;;;10.70;7.68;;;;;;;;;;5134647;27;20098;-70
2022/04/12 14:03:39;;;;;;;10.10;7.80;;;;;;;;;;5146083;27;20031;-70
2022/04/12 14:06:05;;;;;;;12.75;7.95;;;;;;;;;;5125536;27;20030;-70
2022/04/12 14:08:32;;;;;;;10.77;7.88;;;;;;;;;;5110796;27;20357;-71
2022/04/12 14:10:57;;;;;;;9.43;7.72;;;;;;;;;;5122829;27;20045;-70
2022/04/12 14:13:23;;;;;;;12.88;8.68;;;;;;;;;;5147828;27;20022;-70
2022/04/12 14:15:48;;;;;;;13.98;9.02;;;;;;;;;;5144573;27;20458;-71
2022/04/12 14:18:15;;;;;;;11.77;8.27;;;;;;;;;;5147268;27;20382;-71
2022/04/12 14:20:41;;;;;;;14.88;9.68;;;;;;;;;;5107461;27;20042;-69
2022/04/12 14:23:09;;;;;;;11.95;8.50;;;;;;;;;;5125770;27;20023;-72
2022/04/12 14:25:34;;;;;;;10.93;8.82;;;;;;;;;;5110905;27;20018;-71